createdAt,value
2022-11-24T00:00:33.653Z,9.60
2022-11-24T00:03:05.487Z,9.50
2022-11-24T00:05:41.308Z,9.50
2022-11-24T00:08:10.349Z,9.50
2022-11-24T00:10:40.821Z,9.40
2022-11-24T00:13:08.954Z,9.50
2022-11-24T00:15:38.513Z,9.50
2022-11-24T00:18:07.844Z,9.50
2022-11-24T00:20:37.514Z,9.50
2022-11-24T00:23:08.020Z,9.50
2022-11-24T00:25:36.249Z,9.50
2022-11-24T00:28:04.410Z,9.50
2022-11-24T00:30:34.982Z,9.50
2022-11-24T00:33:06.973Z,9.50
2022-11-24T00:35:37.222Z,9.50
2022-11-24T00:38:07.784Z,9.50
2022-11-24T00:40:35.915Z,9.50
2022-11-24T00:43:06.626Z,9.60
2022-11-24T00:45:36.328Z,9.60
2022-11-24T00:48:07.970Z,9.60
2022-11-24T00:50:37.336Z,9.60
2022-11-24T00:53:05.975Z,9.60
2022-11-24T00:55:49.455Z,9.60
2022-11-24T00:58:18.990Z,9.60
2022-11-24T01:00:50.889Z,9.60
2022-11-24T01:03:23.254Z,9.60
2022-11-24T01:05:51.339Z,9.60
2022-11-24T01:08:23.669Z,9.60
2022-11-24T01:10:55.421Z,9.60
2022-11-24T01:13:24.915Z,9.60
2022-11-24T01:15:55.796Z,9.70
2022-11-24T01:18:28.156Z,9.60
2022-11-24T01:20:56.604Z,9.70
2022-11-24T01:23:31.073Z,9.70
2022-11-24T01:26:01.004Z,9.70
2022-11-24T01:28:32.217Z,9.70
2022-11-24T01:31:05.228Z,9.70
2022-11-24T01:33:39.752Z,9.70
2022-11-24T01:36:08.502Z,9.70
2022-11-24T01:38:39.949Z,9.70
2022-11-24T01:41:13.149Z,9.70
2022-11-24T01:43:41.678Z,9.70
2022-11-24T01:46:19.621Z,9.70
2022-11-24T01:48:55.985Z,9.80
2022-11-24T01:51:30.628Z,9.70
2022-11-24T01:54:03.239Z,9.80
2022-11-24T01:56:34.576Z,9.70
2022-11-24T01:59:06.926Z,9.70
2022-11-24T02:01:35.557Z,9.70
2022-11-24T02:04:13.169Z,9.70
2022-11-24T02:06:45.258Z,9.70
2022-11-24T02:09:25.133Z,9.70
2022-11-24T02:11:57.543Z,9.60
2022-11-24T02:14:30.668Z,9.70
2022-11-24T02:17:01.283Z,9.70
2022-11-24T02:19:45.960Z,9.70
2022-11-24T02:22:26.726Z,9.60
2022-11-24T02:25:08.111Z,9.60
2022-11-24T02:27:54.249Z,9.50
2022-11-24T02:30:24.458Z,9.50
2022-11-24T02:33:01.907Z,9.50
2022-11-24T02:35:30.749Z,9.50
2022-11-24T02:38:00.093Z,9.40
2022-11-24T02:40:31.277Z,9.40
2022-11-24T02:43:07.384Z,9.40
2022-11-24T02:45:35.797Z,9.40
2022-11-24T02:48:06.141Z,9.40
2022-11-24T02:50:35.761Z,9.40
2022-11-24T02:53:06.406Z,9.30
2022-11-24T02:55:37.064Z,9.40
2022-11-24T02:58:25.283Z,9.30
2022-11-24T03:00:55.247Z,9.30
2022-11-24T03:03:23.956Z,9.30
2022-11-24T03:05:53.394Z,9.30
2022-11-24T03:08:21.640Z,9.30
2022-11-24T03:13:36.437Z,9.30
2022-11-24T03:16:07.854Z,9.30
2022-11-24T03:18:37.296Z,9.30
2022-11-24T03:21:07.460Z,9.30
2022-11-24T03:23:38.213Z,9.20
2022-11-24T03:26:14.586Z,9.20
2022-11-24T03:28:45.832Z,9.20
2022-11-24T03:31:17.318Z,9.30
2022-11-24T03:33:45.559Z,9.30
2022-11-24T03:36:13.722Z,9.30
2022-11-24T03:41:33.589Z,9.30
2022-11-24T03:44:21.470Z,9.30
2022-11-24T03:46:52.060Z,9.30
2022-11-24T03:49:22.507Z,9.30
2022-11-24T03:54:36.126Z,9.30
2022-11-24T03:57:06.464Z,9.30
2022-11-24T03:59:37.447Z,9.30
2022-11-24T04:02:08.415Z,9.30
2022-11-24T04:04:38.842Z,9.40
2022-11-24T04:07:15.600Z,9.40
2022-11-24T04:09:48.429Z,9.40
2022-11-24T04:12:37.269Z,9.40
2022-11-24T04:15:10.520Z,9.50
2022-11-24T04:17:41.493Z,9.50
2022-11-24T04:20:19.750Z,9.50
2022-11-24T04:22:50.538Z,9.60
2022-11-24T04:25:21.120Z,9.50
2022-11-24T04:27:53.601Z,9.50
2022-11-24T04:30:30.821Z,9.50
2022-11-24T04:33:02.399Z,9.50
2022-11-24T04:35:31.679Z,9.40
2022-11-24T04:38:06.780Z,9.40
2022-11-24T04:40:37.337Z,9.50
2022-11-24T04:43:05.459Z,9.40
2022-11-24T04:45:37.433Z,9.40
2022-11-24T04:48:14.533Z,9.40
2022-11-24T04:50:45.395Z,9.30
2022-11-24T04:53:15.939Z,9.40
2022-11-24T04:55:47.552Z,9.30
2022-11-24T04:58:17.815Z,9.50
2022-11-24T05:00:57.115Z,9.30
2022-11-24T05:03:26.897Z,9.40
2022-11-24T05:05:57.556Z,9.50
2022-11-24T05:08:29.309Z,9.40
2022-11-24T05:10:57.512Z,9.40
2022-11-24T05:13:26.103Z,9.40
2022-11-24T05:15:56.907Z,9.50
2022-11-24T05:18:28.767Z,9.50
2022-11-24T05:20:59.774Z,9.60
2022-11-24T05:23:29.326Z,9.60
2022-11-24T05:26:02.127Z,9.60
2022-11-24T05:28:36.178Z,9.60
2022-11-24T05:31:06.153Z,9.60
2022-11-24T05:33:35.013Z,9.60
2022-11-24T05:36:05.302Z,9.60
2022-11-24T05:38:35.395Z,9.60
2022-11-24T05:41:06.454Z,9.60
2022-11-24T05:43:45.265Z,9.60
2022-11-24T05:46:14.852Z,9.60
2022-11-24T05:48:46.109Z,9.60
2022-11-24T05:51:17.118Z,9.60
2022-11-24T05:53:45.447Z,9.60
2022-11-24T05:56:14.770Z,9.60
2022-11-24T05:58:45.547Z,9.60
2022-11-24T06:01:16.697Z,9.60
2022-11-24T06:03:50.751Z,9.60
2022-11-24T06:06:21.758Z,9.60
2022-11-24T06:08:52.215Z,9.70
2022-11-24T06:11:20.701Z,9.60
2022-11-24T06:13:50.380Z,9.60
2022-11-24T06:16:20.163Z,9.60
2022-11-24T06:18:48.526Z,9.60
2022-11-24T06:21:17.212Z,9.60
2022-11-24T06:23:49.645Z,9.50
2022-11-24T06:26:19.016Z,9.50
2022-11-24T06:28:48.205Z,9.50
2022-11-24T06:31:16.368Z,9.50
2022-11-24T06:33:46.995Z,9.50
2022-11-24T06:36:16.660Z,9.50
2022-11-24T06:38:44.797Z,9.50
2022-11-24T06:41:19.689Z,9.40
2022-11-24T06:43:53.771Z,9.50
2022-11-24T06:46:23.166Z,9.50
2022-11-24T06:49:16.086Z,9.60
2022-11-24T06:51:52.852Z,9.60
2022-11-24T06:54:24.549Z,9.60
2022-11-24T06:56:57.990Z,9.70
2022-11-24T06:59:33.192Z,9.60
2022-11-24T07:02:01.327Z,9.60
2022-11-24T07:04:32.328Z,9.60
2022-11-24T07:07:04.807Z,9.50
2022-11-24T07:09:35.177Z,9.40
2022-11-24T07:12:06.027Z,9.30
2022-11-24T07:14:36.052Z,9.10
2022-11-24T07:17:05.093Z,9.10
2022-11-24T07:19:52.459Z,9.00
2022-11-24T07:22:21.093Z,9.00
2022-11-24T07:24:51.900Z,9.00
2022-11-24T07:27:22.525Z,9.00
2022-11-24T07:29:50.924Z,8.90
2022-11-24T07:33:06.621Z,8.90
2022-11-24T07:35:56.883Z,9.00
2022-11-24T07:39:26.603Z,9.30
2022-11-24T07:49:26.584Z,9.40
2022-11-24T07:52:25.030Z,9.30
2022-11-24T08:02:20.409Z,9.40
2022-11-24T08:04:50.627Z,9.40
2022-11-24T08:07:21.269Z,9.40
2022-11-24T08:09:52.238Z,9.50
2022-11-24T08:12:24.542Z,9.50
2022-11-24T08:14:53.754Z,9.40
2022-11-24T08:17:24.494Z,9.50
2022-11-24T08:19:56.464Z,9.60
2022-11-24T08:22:27.252Z,9.60
2022-11-24T08:24:56.437Z,9.80
2022-11-24T08:27:27.808Z,9.60
2022-11-24T08:29:56.429Z,9.60
2022-11-24T08:32:25.711Z,9.70
2022-11-24T08:35:13.043Z,9.70
2022-11-24T08:37:44.822Z,9.80
2022-11-24T08:40:14.066Z,9.90
2022-11-24T08:42:44.579Z,9.90
2022-11-24T08:45:21.048Z,9.90
2022-11-24T08:47:54.383Z,10.00
2022-11-24T08:50:22.826Z,10.10
2022-11-24T08:52:53.239Z,10.00
2022-11-24T08:55:22.265Z,10.10
2022-11-24T08:57:50.457Z,10.20
2022-11-24T09:00:22.606Z,10.00
2022-11-24T09:02:57.707Z,10.00
2022-11-24T09:05:50.623Z,10.20
2022-11-24T09:08:15.715Z,10.20
2022-11-24T09:10:44.052Z,10.10
2022-11-24T09:13:12.190Z,10.20
2022-11-24T09:15:40.341Z,10.10
2022-11-24T09:18:08.507Z,10.10
2022-11-24T09:20:36.667Z,10.20
2022-11-24T09:23:04.841Z,10.20
2022-11-24T09:25:34.328Z,10.30
2022-11-24T09:28:02.573Z,10.30
2022-11-24T09:30:30.843Z,10.30
2022-11-24T09:32:59.234Z,10.30
2022-11-24T09:35:27.404Z,10.40
2022-11-24T09:37:55.561Z,10.50
2022-11-24T09:40:24.287Z,10.60
2022-11-24T09:43:02.048Z,10.60
2022-11-24T09:46:05.139Z,10.60
2022-11-24T09:48:37.768Z,10.60
2022-11-24T09:51:06.618Z,10.70
2022-11-24T09:53:42.573Z,10.80
2022-11-24T09:56:19.772Z,10.80
2022-11-24T09:58:51.781Z,10.90
2022-11-24T10:01:21.535Z,11.00
2022-11-24T10:03:51.868Z,11.20
2022-11-24T10:06:25.954Z,11.20
2022-11-24T10:09:20.769Z,11.30
2022-11-24T10:12:00.139Z,11.40
2022-11-24T10:15:15.997Z,11.40
2022-11-24T10:18:23.164Z,11.40
2022-11-24T10:20:58.078Z,11.30
2022-11-24T10:23:40.926Z,11.30
2022-11-24T10:26:17.009Z,11.20
2022-11-24T10:28:50.429Z,11.30
2022-11-24T10:31:25.207Z,11.30
2022-11-24T10:33:55.395Z,11.30
2022-11-24T10:36:33.247Z,11.10
2022-11-24T10:39:07.256Z,11.10
2022-11-24T10:41:43.511Z,11.10
2022-11-24T10:44:15.652Z,11.20
2022-11-24T10:46:44.097Z,11.00
2022-11-24T10:49:20.280Z,11.20
2022-11-24T10:51:59.535Z,11.30
2022-11-24T10:54:27.641Z,11.30
2022-11-24T10:56:56.438Z,11.30
2022-11-24T10:59:33.764Z,11.40
2022-11-24T11:02:02.695Z,11.50
2022-11-24T11:04:34.180Z,11.50
2022-11-24T11:07:26.765Z,11.70
2022-11-24T11:10:20.588Z,11.60
2022-11-24T11:12:48.886Z,11.60
2022-11-24T11:15:30.038Z,11.70
2022-11-24T11:18:00.177Z,11.80
2022-11-24T11:20:32.338Z,11.90
2022-11-24T11:23:04.348Z,12.00
2022-11-24T11:25:35.158Z,12.10
2022-11-24T11:28:23.409Z,12.00
2022-11-24T11:31:20.006Z,12.20
2022-11-24T11:34:03.792Z,12.10
2022-11-24T11:36:34.686Z,11.90
2022-11-24T11:39:05.051Z,12.20
2022-11-24T11:41:37.241Z,12.20
2022-11-24T11:44:22.802Z,12.20
2022-11-24T11:46:51.231Z,12.40
2022-11-24T11:49:19.436Z,12.60
2022-11-24T11:52:04.924Z,12.60
2022-11-24T11:54:52.939Z,12.60
2022-11-24T11:57:32.792Z,12.70
2022-11-24T12:00:11.053Z,12.60
2022-11-24T12:03:06.594Z,12.50
2022-11-24T12:05:48.600Z,12.60
2022-11-24T12:08:49.607Z,12.60
2022-11-24T12:11:28.039Z,12.60
2022-11-24T12:14:10.557Z,12.80
2022-11-24T12:16:46.755Z,13.10
2022-11-24T12:19:34.091Z,13.10
2022-11-24T12:22:10.520Z,13.00
2022-11-24T12:24:51.072Z,12.90
2022-11-24T12:27:29.280Z,13.10
2022-11-24T12:30:06.806Z,13.00
2022-11-24T12:32:55.786Z,13.10
2022-11-24T12:35:30.764Z,13.00
2022-11-24T12:38:10.496Z,13.30
2022-11-24T12:41:18.343Z,13.20
2022-11-24T12:43:52.885Z,13.20
2022-11-24T12:46:26.721Z,13.20
2022-11-24T12:49:05.584Z,13.10
2022-11-24T12:51:38.265Z,12.80
2022-11-24T12:54:22.258Z,13.00
2022-11-24T12:56:57.169Z,13.10
2022-11-24T12:59:34.747Z,13.10
2022-11-24T13:02:15.962Z,13.20
2022-11-24T13:04:49.448Z,13.00
2022-11-24T13:07:22.285Z,13.20
2022-11-24T13:10:54.054Z,13.20
2022-11-24T13:13:18.905Z,13.30
2022-11-24T13:16:35.173Z,13.30
2022-11-24T13:19:03.968Z,13.30
2022-11-24T13:21:51.875Z,13.30
2022-11-24T13:24:26.597Z,13.20
2022-11-24T13:26:56.676Z,13.20
2022-11-24T13:29:35.485Z,13.20
2022-11-24T13:32:52.246Z,13.30
2022-11-24T13:35:20.481Z,13.40
2022-11-24T13:37:51.742Z,13.50
2022-11-24T13:40:49.842Z,13.20
2022-11-24T13:43:30.884Z,13.00
2022-11-24T13:46:00.354Z,13.30
2022-11-24T13:49:02.229Z,13.20
2022-11-24T13:51:30.454Z,13.10
2022-11-24T13:54:00.986Z,13.10
2022-11-24T13:56:31.780Z,12.80
2022-11-24T13:59:02.953Z,12.80
2022-11-24T14:01:35.473Z,12.90
2022-11-24T14:04:31.120Z,13.10
2022-11-24T14:07:08.222Z,13.20
2022-11-24T14:09:41.823Z,13.30
2022-11-24T14:12:15.715Z,13.30
2022-11-24T14:14:45.587Z,13.50
2022-11-24T14:17:22.763Z,13.40
2022-11-24T14:19:52.844Z,13.40
2022-11-24T14:22:23.304Z,13.10
2022-11-24T14:24:56.438Z,12.80
2022-11-24T14:27:30.886Z,12.50
2022-11-24T14:30:00.909Z,12.30
2022-11-24T14:32:30.871Z,12.10
2022-11-24T14:34:59.072Z,12.10
2022-11-24T14:37:27.277Z,12.00
2022-11-24T14:39:55.428Z,12.20
2022-11-24T14:42:26.038Z,12.30
2022-11-24T14:44:56.685Z,12.30
2022-11-24T14:47:31.748Z,12.30
2022-11-24T14:50:10.393Z,12.20
2022-11-24T14:52:46.411Z,12.10
2022-11-24T14:55:26.866Z,12.10
2022-11-24T14:57:55.260Z,11.80
2022-11-24T15:00:29.117Z,11.80
2022-11-24T15:03:14.407Z,11.60
2022-11-24T15:05:55.749Z,11.30
2022-11-24T15:08:25.315Z,11.10
2022-11-24T15:10:59.411Z,11.10
2022-11-24T15:13:34.961Z,10.80
2022-11-24T15:16:05.864Z,10.70
2022-11-24T15:18:40.337Z,10.60
2022-11-24T15:21:14.273Z,10.40
2022-11-24T15:24:06.310Z,10.30
2022-11-24T15:26:40.199Z,10.10
2022-11-24T15:29:10.573Z,10.00
2022-11-24T15:31:39.091Z,9.90
2022-11-24T15:34:07.619Z,9.80
2022-11-24T15:36:37.090Z,9.60
2022-11-24T15:39:05.249Z,9.40
2022-11-24T15:41:34.703Z,9.30
2022-11-24T15:44:02.782Z,9.20
2022-11-24T15:46:37.817Z,9.20
2022-11-24T15:49:07.100Z,9.10
2022-11-24T15:51:38.977Z,9.00
2022-11-24T15:54:07.264Z,8.90
2022-11-24T15:56:36.791Z,8.60
2022-11-24T15:59:05.654Z,8.50
2022-11-24T16:01:35.082Z,8.50
2022-11-24T16:04:03.784Z,8.40
2022-11-24T16:06:32.049Z,8.40
2022-11-24T16:09:01.583Z,8.30
2022-11-24T16:11:29.768Z,8.30
2022-11-24T16:13:57.987Z,8.20
2022-11-24T16:16:26.234Z,8.10
2022-11-24T16:18:54.575Z,7.90
2022-11-24T16:21:23.246Z,8.00
2022-11-24T16:23:51.885Z,8.00
2022-11-24T16:26:21.461Z,8.00
2022-11-24T16:28:49.692Z,8.00
2022-11-24T16:31:19.050Z,7.90
2022-11-24T16:33:47.428Z,7.80
2022-11-24T16:36:15.809Z,7.80
2022-11-24T16:38:43.876Z,7.80
2022-11-24T16:41:13.053Z,7.70
2022-11-24T16:43:42.882Z,7.50
2022-11-24T16:46:19.741Z,7.50
2022-11-24T16:48:49.627Z,7.30
2022-11-24T16:51:19.031Z,7.30
2022-11-24T16:53:47.865Z,7.30
2022-11-24T16:56:16.580Z,7.30
2022-11-24T16:58:46.068Z,7.30
2022-11-24T17:13:06.873Z,7.20
2022-11-24T17:15:45.286Z,7.10
2022-11-24T17:18:30.919Z,7.10
2022-11-24T17:21:02.088Z,7.00
2022-11-24T17:23:34.218Z,7.10
2022-11-24T17:26:03.332Z,6.90
2022-11-24T17:28:31.657Z,6.90
2022-11-24T17:31:07.427Z,6.80
2022-11-24T17:33:35.716Z,6.80
2022-11-24T17:36:04.538Z,6.80
2022-11-24T17:38:32.742Z,6.80
2022-11-24T17:41:00.889Z,6.80
2022-11-24T17:43:29.061Z,6.80
2022-11-24T17:45:59.180Z,6.60
2022-11-24T17:48:29.548Z,6.70
2022-11-24T17:51:01.506Z,6.80
2022-11-24T17:53:30.079Z,6.70
2022-11-24T17:56:01.012Z,6.70
2022-11-24T17:58:29.354Z,6.80
2022-11-24T18:00:58.420Z,6.70
2022-11-24T18:03:31.525Z,6.70
2022-11-24T18:06:04.998Z,6.60
2022-11-24T18:08:34.064Z,6.60
2022-11-24T18:11:06.197Z,6.60
2022-11-24T18:13:55.833Z,6.60
2022-11-24T18:16:22.827Z,6.60
2022-11-24T18:19:07.373Z,6.50
2022-11-24T18:21:39.455Z,6.30
2022-11-24T18:24:08.444Z,6.30
2022-11-24T18:26:36.783Z,6.30
2022-11-24T18:29:05.018Z,6.30
2022-11-24T18:31:35.527Z,6.30
2022-11-24T18:34:06.520Z,6.20
2022-11-24T18:36:35.526Z,6.20
2022-11-24T18:39:04.529Z,6.20
2022-11-24T18:41:32.968Z,6.10
2022-11-24T18:44:02.433Z,6.10
2022-11-24T18:46:31.279Z,6.10
2022-11-24T18:49:00.255Z,6.10
2022-11-24T18:51:30.213Z,6.10
2022-11-24T18:53:59.264Z,6.10
2022-11-24T18:56:27.958Z,6.00
2022-11-24T18:58:59.199Z,5.90
2022-11-24T19:01:29.845Z,6.00
2022-11-24T19:04:00.075Z,5.90
2022-11-24T19:06:32.642Z,5.90
2022-11-24T19:09:02.556Z,5.90
2022-11-24T19:11:33.814Z,5.90
2022-11-24T19:14:02.524Z,5.80
2022-11-24T19:16:30.782Z,5.80
2022-11-24T19:19:00.542Z,5.70
2022-11-24T19:21:31.403Z,5.70
2022-11-24T19:24:04.447Z,5.70
2022-11-24T19:26:34.934Z,5.80
2022-11-24T19:29:03.561Z,5.80
2022-11-24T19:31:32.021Z,5.70
2022-11-24T19:34:00.263Z,5.70
2022-11-24T19:36:29.915Z,5.60
2022-11-24T19:38:59.599Z,5.60
2022-11-24T19:41:29.930Z,5.70
2022-11-24T19:43:58.793Z,5.70
2022-11-24T19:46:29.669Z,5.70
2022-11-24T19:49:00.045Z,5.80
2022-11-24T19:51:31.780Z,5.70
2022-11-24T19:54:00.241Z,5.60
2022-11-24T19:56:30.546Z,5.60
2022-11-24T19:58:58.891Z,5.50
2022-11-24T20:01:28.552Z,5.60
2022-11-24T20:03:59.362Z,5.60
2022-11-24T20:06:29.847Z,5.60
2022-11-24T20:09:00.489Z,5.50
2022-11-24T20:11:29.420Z,5.40
2022-11-24T20:13:58.313Z,5.40
2022-11-24T20:16:29.842Z,5.40
2022-11-24T20:18:59.879Z,5.40
2022-11-24T20:21:31.952Z,5.40
2022-11-24T20:24:02.165Z,5.40
2022-11-24T20:26:31.948Z,5.40
2022-11-24T20:29:01.414Z,5.40
2022-11-24T20:31:33.170Z,5.30
2022-11-24T20:34:02.149Z,5.30
2022-11-24T20:36:33.629Z,5.30
2022-11-24T20:39:04.762Z,5.30
2022-11-24T20:41:35.572Z,5.30
2022-11-24T20:44:07.229Z,5.30
2022-11-24T20:46:37.433Z,5.30
2022-11-24T20:49:06.565Z,5.20
2022-11-24T20:51:39.144Z,5.10
2022-11-24T20:54:08.696Z,5.10
2022-11-24T20:56:39.928Z,5.00
2022-11-24T20:59:09.070Z,5.00
2022-11-24T21:01:39.994Z,4.90
2022-11-24T21:04:10.470Z,5.00
2022-11-24T21:06:40.347Z,5.00
2022-11-24T21:09:09.826Z,4.90
2022-11-24T21:11:39.390Z,5.00
2022-11-24T21:14:08.195Z,4.90
2022-11-24T21:16:38.389Z,4.90
2022-11-24T21:19:09.093Z,4.90
2022-11-24T21:21:39.659Z,4.90
2022-11-24T21:24:11.696Z,4.90
2022-11-24T21:26:40.783Z,5.00
2022-11-24T21:29:09.572Z,4.90
2022-11-24T21:31:38.658Z,4.90
2022-11-24T21:34:08.314Z,4.90
2022-11-24T21:36:40.689Z,4.90
2022-11-24T21:39:13.296Z,4.90
2022-11-24T21:41:41.907Z,5.00
2022-11-24T21:44:11.548Z,5.00
2022-11-24T21:46:45.084Z,4.90
2022-11-24T21:49:17.554Z,4.90
2022-11-24T21:51:45.713Z,4.90
2022-11-24T21:54:15.173Z,4.90
2022-11-24T21:56:43.341Z,4.90
2022-11-24T21:59:11.671Z,4.90
2022-11-24T22:01:40.067Z,4.90
2022-11-24T22:04:08.276Z,4.90
2022-11-24T22:06:36.763Z,4.90
2022-11-24T22:09:04.935Z,4.90
2022-11-24T22:11:34.438Z,5.00
2022-11-24T22:14:02.559Z,5.00
2022-11-24T22:16:31.026Z,5.10
2022-11-24T22:19:01.667Z,5.10
2022-11-24T22:21:33.550Z,5.10
2022-11-24T22:24:02.032Z,5.00
2022-11-24T22:26:31.228Z,5.00
2022-11-24T22:29:00.771Z,5.00
2022-11-24T22:31:30.203Z,5.00
2022-11-24T22:33:59.714Z,4.90
2022-11-24T22:36:29.504Z,4.90
2022-11-24T22:38:59.315Z,4.90
2022-11-24T22:41:27.566Z,4.90
2022-11-24T22:43:55.926Z,4.90
2022-11-24T22:46:27.239Z,4.90
2022-11-24T22:48:56.238Z,4.80
2022-11-24T22:51:26.877Z,4.80
2022-11-24T22:53:57.148Z,4.70
2022-11-24T22:56:27.890Z,4.70
2022-11-24T22:58:56.079Z,4.80
2022-11-24T23:01:27.159Z,4.80
2022-11-24T23:03:55.595Z,4.80
2022-11-24T23:06:26.205Z,4.80
2022-11-24T23:08:54.736Z,4.90
2022-11-24T23:11:31.576Z,4.80
2022-11-24T23:14:01.454Z,4.90
2022-11-24T23:16:31.367Z,4.80
2022-11-24T23:18:59.579Z,4.90
2022-11-24T23:21:29.254Z,4.80
2022-11-24T23:23:59.050Z,4.80
2022-11-24T23:26:29.483Z,4.80
2022-11-24T23:28:57.646Z,4.80
2022-11-24T23:31:29.065Z,4.80
2022-11-24T23:33:59.573Z,4.70
2022-11-24T23:36:28.329Z,4.80
2022-11-24T23:38:56.719Z,4.70
2022-11-24T23:41:26.830Z,4.70
2022-11-24T23:43:56.151Z,4.70
2022-11-24T23:46:26.429Z,4.70
2022-11-24T23:48:55.850Z,4.70
2022-11-24T23:51:27.057Z,4.80
2022-11-24T23:53:55.588Z,4.80
2022-11-24T23:56:31.563Z,4.80
2022-11-24T23:59:00.251Z,4.90
